Latest Weather Observations for Holsworthy

IDN60901

Issued at 11:21 pm EDT Friday 23 October 2020 (issued every 10 minutes, with the page automatically refreshed every 10 minutes)

About weather observations | Map of Sydney area stations | Latest observations for Sydney area | Other Formats
Station Details ID: 066161 Name: HOLSWORTHY AERODROME AWS Lat: -33.99 Lon: 150.95 Height: 68.16 m
Data from the previous 72 hours. | See also: Recent months at Holsworthy
Date/Time
EDT
Temp
°C
App
Temp
°C
Dew
Point
°C
Rel
Hum
%
Delta-T
°C
Wind Press
QNH
hPa
Press
MSL
hPa
Rain since
9am
mm
Dir  Spd
km/h
Gust
km/h
Spd
kts
Gust
kts
23/11:00pm 19.6 20.5 17.6 88 1.2 E 9 13 5 7 1008.9 1008.8 0.0
23/10:30pm 19.7 20.6 17.5 87 1.3 E 9 11 5 6 1009.2 1009.1 0.0
23/10:00pm 19.7 20.5 17.3 86 1.5 ENE 9 13 5 7 1009.6 1009.5 0.0
23/09:30pm 19.9 20.3 17.3 85 1.6 E 11 15 6 8 1009.2 1009.1 0.0
23/09:00pm 20.0 20.3 17.0 83 1.8 ENE 11 15 6 8 1009.4 1009.3 0.0
23/08:30pm 20.3 20.6 16.9 81 2.1 E 11 15 6 8 1009.6 1009.5 0.0
23/08:00pm 20.5 19.9 16.7 79 2.3 ENE 15 22 8 12 1009.7 1009.6 0.0
23/07:30pm 20.9 19.9 16.5 76 2.7 ENE 17 32 9 17 1009.3 1009.2 0.0
23/07:00pm 21.3 18.6 16.5 74 2.9 ENE 26 41 14 22 1008.7 1008.6 0.0
23/06:30pm 22.0 18.7 16.1 69 3.6 ENE 28 39 15 21 1008.7 1008.6 0.0
23/06:00pm 22.9 21.0 15.7 64 4.4 ENE 20 35 11 19 1008.4 1008.3 0.0
23/05:30pm 24.0 22.1 15.8 60 5.0 ENE 20 32 11 17 1008.6 1008.5 0.0
23/05:00pm 25.0 23.3 16.2 58 5.4 ENE 20 28 11 15 1008.5 1008.4 0.0
23/04:30pm 25.8 23.9 15.8 54 6.1 E 20 28 11 15 1008.9 1008.8 0.0
23/04:00pm 25.3 22.7 15.0 53 6.2 E 22 30 12 16 1009.0 1008.9 0.0
23/03:30pm 25.5 23.2 14.6 51 6.5 E 20 30 11 16 1009.3 1009.2 0.0
23/03:00pm 26.2 24.0 15.0 50 6.8 E 20 32 11 17 1009.7 1009.6 0.0
23/02:30pm 26.1 22.6 14.6 49 6.9 E 26 37 14 20 1010.1 1010.0 0.0
23/02:00pm 27.6 26.3 14.9 45 7.7 NE 15 22 8 12 1011.0 1010.9 0.0
23/01:30pm 28.6 28.1 13.7 40 8.9 N 9 15 5 8 1011.3 1011.2 0.0
23/01:00pm 27.5 26.1 13.4 41 8.4 N 13 20 7 11 1011.7 1011.6 0.0
23/12:30pm 26.8 24.4 12.5 41 8.3 NNE 17 24 9 13 1012.1 1012.0 0.0
23/12:00pm 26.1 25.1 14.6 49 6.9 N 13 24 7 13 1012.6 1012.5 0.0
23/11:30am 25.0 23.9 14.2 51 6.4 NNE 13 24 7 13 1012.9 1012.8 0.0
23/11:00am 24.0 23.2 15.2 58 5.3 ENE 13 19 7 10 1013.2 1013.1 0.0
23/10:30am 22.8 22.6 15.6 64 4.3 N 11 17 6 9 1013.8 1013.7 0.0
23/10:00am 22.3 22.2 15.9 67 3.9 NE 11 17 6 9 1014.2 1014.1 0.0
23/09:30am 20.8 21.6 15.8 73 3.0 NNW 6 11 3 6 1014.5 1014.3 0.0
23/09:10am 20.3 21.3 16.3 78 2.4 NNW 6 9 3 5 1014.7 1014.5 0.0
23/09:00am 19.5 21.1 16.0 80 2.1 NNE 2 7 1 4 1014.8 1014.6 0.0
23/08:30am 18.4 20.0 16.0 86 1.4 NNE 2 7 1 4 1014.7 1014.5 0.0
23/08:00am 18.2 20.0 16.5 90 1.0 NNW 2 7 1 4 1014.6 1014.4 0.0
23/07:30am 17.8 20.1 16.7 93 0.7 CALM 0 2 0 1 1014.6 1014.4 0.0
23/07:00am 17.5 18.6 16.7 95 0.5 ENE 6 11 3 6 1014.1 1014.0 0.0
23/06:30am 16.6 18.8 16.4 99 0.1 CALM 0 0 0 0 1014.5 1014.3 0.0
23/06:00am 15.9 17.7 15.6 98 0.2 CALM 0 0 0 0 1014.0 1013.9 0.0
23/05:38am 14.6 14.7 14.0 96 0.3 SSW 6 7 3 4 1013.9 1013.8 0.0
23/05:30am 15.0 16.4 14.4 96 0.3 CALM 0 4 0 2 1014.0 1013.9 0.0
23/05:00am 15.3 15.5 14.3 94 0.6 ESE 6 7 3 4 1013.4 1013.3 0.0
23/04:30am 15.8 16.4 15.2 96 0.3 ESE 6 7 3 4 1013.2 1013.1 0.0
23/04:00am 15.8 16.7 15.0 95 0.5 ESE 4 6 2 3 1013.5 1013.4 0.0
23/03:30am 16.3 18.0 15.3 94 0.6 CALM 0 7 0 4 1013.2 1013.1 0.0
23/03:00am 17.4 18.4 16.3 93 0.7 ENE 6 7 3 4 1013.3 1013.2 0.0
23/02:30am 17.5 18.4 16.0 91 0.9 ENE 6 7 3 4 1013.8 1013.7 0.0
23/02:23am 17.6 18.5 16.1 91 0.9 ENE 6 7 3 4 1013.9 1013.8 0.0
23/02:00am 17.8 18.8 16.3 91 0.9 ENE 6 7 3 4 1014.4 1014.2 0.0
23/01:30am 17.7 18.7 16.4 92 0.8 ENE 6 6 3 3 1014.6 1014.4 0.0
23/01:25am 17.6 18.6 16.3 92 0.8 ENE 6 9 3 5 1014.7 1014.5 0.0
23/01:00am 17.7 18.4 16.2 91 0.9 ENE 7 9 4 5 1014.9 1014.7 0.0
23/12:30am 18.1 19.1 16.3 89 1.1 E 6 9 3 5 1015.3 1015.1 0.0
23/12:00am 18.3 19.2 16.5 89 1.1 ENE 7 11 4 6 1015.4 1015.2 0.0
 
Date/Time
EDT
Temp
°C
App
Temp
°C
Dew
Point
°C
Rel
Hum
%
Delta-T
°C
Wind Press
QNH
hPa
Press
MSL
hPa
Rain since
9am
mm
Dir  Spd
km/h
Gust
km/h
Spd
kts
Gust
kts
22/11:30pm 18.3 19.0 16.1 87 1.3 ENE 7 11 4 6 1015.4 1015.2 0.0
22/11:00pm 18.8 19.2 16.4 86 1.4 ENE 9 11 5 6 1015.5 1015.3 0.0
22/10:30pm 18.8 20.5 16.2 85 1.6 NE 2 7 1 4 1015.9 1015.7 0.0
22/10:00pm 19.2 20.0 16.4 84 1.7 NE 7 9 4 5 1015.8 1015.6 0.0
22/09:30pm 19.5 20.3 16.3 82 1.9 ENE 7 9 4 5 1015.9 1015.7 0.0
22/09:00pm 19.7 20.1 16.3 81 2.0 ENE 9 20 5 11 1015.7 1015.5 0.0
22/08:30pm 19.7 19.4 16.5 82 1.9 NE 13 19 7 10 1015.4 1015.2 0.0
22/08:00pm 19.8 19.1 16.4 81 2.0 ENE 15 22 8 12 1015.1 1014.9 0.0
22/07:30pm 20.2 18.5 16.2 78 2.4 ENE 20 35 11 19 1014.8 1014.6 0.0
22/07:00pm 20.6 19.4 16.0 75 2.8 ENE 17 24 9 13 1014.6 1014.4 0.0
22/06:30pm 21.3 19.4 15.8 71 3.3 ENE 20 30 11 16 1013.9 1013.8 0.0
22/06:00pm 21.8 19.7 15.2 66 3.9 E 20 28 11 15 1013.4 1013.3 0.0
22/05:30pm 22.5 20.8 13.6 57 5.2 ENE 15 24 8 13 1013.1 1013.0 0.0
22/05:00pm 22.5 20.4 14.6 61 4.7 E 19 30 10 16 1013.0 1012.9 0.0
22/04:30pm 22.7 20.5 15.0 61 4.6 ESE 20 28 11 15 1013.0 1012.9 0.0
22/04:00pm 23.0 20.9 14.6 59 5.0 ENE 19 26 10 14 1012.9 1012.8 0.0
22/03:30pm 23.4 21.2 14.9 59 5.1 E 20 28 11 15 1012.9 1012.8 0.0
22/03:00pm 23.7 21.5 14.4 56 5.5 ENE 19 28 10 15 1013.4 1013.3 0.0
22/02:30pm 23.9 22.3 14.0 54 5.8 E 15 20 8 11 1013.8 1013.7 0.0
22/02:00pm 24.0 22.6 14.4 55 5.7 ESE 15 24 8 13 1014.0 1013.9 0.0
22/01:30pm 24.0 22.4 15.0 57 5.4 ESE 17 24 9 13 1014.2 1014.1 0.0
22/01:00pm 23.9 23.5 16.2 62 4.7 ENE 13 19 7 10 1014.5 1014.3 0.0
22/12:30pm 22.4 21.9 14.8 62 4.5 ENE 11 19 6 10 1014.8 1014.6 0.0
22/12:00pm 21.3 21.7 15.4 69 3.5 ESE 7 15 4 8 1015.1 1014.9 0.0
22/11:30am 20.4 20.5 15.4 73 3.0 ESE 9 13 5 7 1015.5 1015.3 0.0
22/11:00am 19.9 20.6 15.7 77 2.5 SSE 6 9 3 5 1015.8 1015.6 0.0
22/10:30am 18.7 18.8 15.6 82 1.8 S 9 11 5 6 1016.1 1015.9 0.0
22/10:00am 17.9 17.7 15.7 87 1.3 S 11 13 6 7 1016.3 1016.1 0.0
22/09:30am 17.2 17.3 15.4 89 1.1 S 9 13 5 7 1016.3 1016.1 0.0
22/09:00am 16.9 17.0 15.6 92 0.8 SSE 9 13 5 7 1016.1 1015.9 2.2
22/08:30am 16.3 16.2 15.0 92 0.8 SSE 9 11 5 6 1015.9 1015.7 2.2
22/08:00am 15.9 16.2 14.9 94 0.6 SSE 7 11 4 6 1015.4 1015.2 2.2
22/07:30am 15.7 16.0 15.1 96 0.3 SSE 7 11 4 6 1015.2 1015.0 2.2
22/07:00am 15.4 16.2 14.8 96 0.3 WNW 4 7 2 4 1015.0 1014.8 2.2
22/06:30am 15.4 15.8 14.8 96 0.3 ENE 6 9 3 5 1014.6 1014.4 2.2
22/06:00am 15.4 16.5 14.6 95 0.5 SE 2 7 1 4 1014.4 1014.2 1.6
22/05:30am 15.3 15.4 14.5 95 0.5 SW 7 11 4 6 1014.1 1014.0 1.0
22/05:00am 15.6 15.6 14.3 92 0.7 WSW 7 13 4 7 1013.7 1013.6 0.8
22/04:30am 15.7 15.8 14.4 92 0.7 SSE 7 9 4 5 1013.5 1013.4 0.2
22/04:00am 15.0 15.9 13.0 88 1.1 CALM 0 0 0 0 1013.5 1013.4 0.0
22/03:30am 15.5 15.5 13.7 89 1.0 SE 6 9 3 5 1013.7 1013.6 0.0
22/03:00am 15.2 15.0 13.1 87 1.2 SE 6 6 3 3 1014.0 1013.9 0.0
22/02:30am 15.6 15.3 13.3 86 1.3 ESE 7 9 4 5 1014.2 1014.1 0.0
22/02:00am 15.7 15.4 13.4 86 1.3 SE 7 9 4 5 1014.7 1014.5 0.0
22/01:30am 15.8 15.4 13.1 84 1.5 ESE 7 9 4 5 1014.9 1014.7 0.0
22/01:00am 16.1 15.3 13.0 82 1.7 ESE 9 11 5 6 1015.3 1015.1 0.0
22/12:30am 16.4 16.3 13.3 82 1.7 ESE 6 7 3 4 1015.4 1015.2 0.0
22/12:00am 16.4 17.3 12.9 80 1.9 CALM 0 0 0 0 1015.6 1015.4 0.0
 
Date/Time
EDT
Temp
°C
App
Temp
°C
Dew
Point
°C
Rel
Hum
%
Delta-T
°C
Wind Press
QNH
hPa
Press
MSL
hPa
Rain since
9am
mm
Dir  Spd
km/h
Gust
km/h
Spd
kts
Gust
kts
21/11:30pm 16.8 16.4 13.1 79 2.1 E 7 11 4 6 1015.4 1015.2 0.0
21/11:00pm 17.3 16.5 13.0 76 2.4 E 9 13 5 7 1015.6 1015.4 0.0
21/10:30pm 17.7 17.0 13.2 75 2.5 NE 9 20 5 11 1015.7 1015.5 0.0
21/10:00pm 17.3 16.5 12.8 75 2.5 NE 9 19 5 10 1015.5 1015.3 0.0
21/09:30pm 17.6 16.9 13.1 75 2.5 NE 9 15 5 8 1015.3 1015.1 0.0
21/09:00pm 17.8 17.0 12.9 73 2.7 ENE 9 15 5 8 1014.9 1014.7 0.0
21/08:30pm 18.1 16.6 13.0 72 2.9 ENE 13 20 7 11 1014.6 1014.4 0.0
21/08:00pm 18.3 15.9 12.7 70 3.1 ENE 17 30 9 16 1014.1 1014.0 0.0
21/07:30pm 18.7 16.4 12.9 69 3.3 ENE 17 20 9 11 1013.7 1013.6 0.0
21/07:00pm 19.1 16.7 12.8 67 3.6 ENE 17 24 9 13 1013.4 1013.3 0.0
21/06:30pm 19.9 17.0 12.9 64 4.0 ENE 20 26 11 14 1013.3 1013.2 0.0
21/06:00pm 20.7 18.5 13.2 62 4.3 ENE 17 22 9 12 1013.1 1013.0 0.0
21/05:30pm 21.7 18.6 13.3 59 4.8 ENE 22 30 12 16 1012.8 1012.7 0.0
21/05:00pm 22.2 19.1 13.5 57 5.0 ENE 22 32 12 17 1012.7 1012.6 0.0
21/04:30pm 22.8 19.7 13.3 55 5.5 ENE 22 33 12 18 1013.0 1012.9 0.0
21/04:00pm 23.2 20.5 13.4 54 5.7 ENE 20 32 11 17 1013.1 1013.0 0.0
21/03:30pm 23.7 20.9 13.3 52 6.0 ENE 20 33 11 18 1013.5 1013.4 0.0
21/03:00pm 24.0 21.4 13.8 53 6.0 ENE 20 30 11 16 1013.7 1013.6 0.0
21/02:30pm 24.3 21.4 14.1 53 6.0 E 22 33 12 18 1013.9 1013.8 0.0
21/02:00pm 23.5 20.8 13.4 53 5.9 NE 20 30 11 16 1014.5 1014.3 0.0
21/01:30pm 24.0 21.3 13.5 52 6.1 ENE 20 32 11 17 1015.0 1014.8 0.0
21/01:00pm 23.5 20.8 12.8 51 6.2 NE 19 32 10 17 1015.3 1015.1 0.0
21/12:30pm 23.8 21.1 11.8 47 6.8 NE 17 26 9 14 1015.7 1015.5 0.0
21/12:00pm 22.6 20.0 12.0 51 6.0 NNE 17 28 9 15 1016.4 1016.2 0.0
21/11:30am 23.0 21.3 12.3 51 6.1 N 13 20 7 11 1016.8 1016.6 0.0
21/11:00am 22.4 20.7 12.6 54 5.6 NNE 13 20 7 11 1017.2 1017.0 0.0
21/10:30am 22.0 20.5 13.1 57 5.1 N 13 20 7 11 1017.5 1017.3 0.0
21/10:00am 20.0 17.8 12.0 60 4.5 NNE 15 24 8 13 1017.8 1017.6 0.0
21/09:30am 19.5 17.0 12.3 63 4.0 NNE 17 26 9 14 1018.0 1017.8 0.0
21/09:00am 18.8 17.1 12.3 66 3.6 NNE 13 19 7 10 1018.1 1017.9 0.0
21/08:30am 17.5 16.5 12.2 71 2.9 N 9 15 5 8 1017.9 1017.7 0.0
21/08:00am 16.6 16.3 12.6 77 2.2 WSW 6 9 3 5 1017.9 1017.7 0.0
21/07:30am 15.4 16.6 13.9 91 0.8 CALM 0 0 0 0 1017.7 1017.5 0.0
21/07:00am 12.9 13.3 11.3 90 0.8 CALM 0 0 0 0 1017.4 1017.2 0.0
21/06:30am 11.9 12.2 10.8 93 0.6 CALM 0 0 0 0 1017.2 1017.0 0.0
21/06:00am 11.7 11.9 10.6 93 0.6 CALM 0 0 0 0 1016.8 1016.6 0.0
21/05:30am 11.8 12.0 10.5 92 0.7 CALM 0 0 0 0 1016.7 1016.5 0.0
21/05:00am 12.1 12.4 11.0 93 0.6 CALM 0 0 0 0 1016.5 1016.3 0.0
21/04:30am 12.2 12.6 11.1 93 0.6 CALM 0 0 0 0 1016.4 1016.2 0.0
21/04:00am 12.2 12.5 10.9 92 0.7 CALM 0 0 0 0 1016.3 1016.1 0.0
21/03:30am 12.5 12.9 11.2 92 0.7 CALM 0 0 0 0 1016.4 1016.2 0.0
21/03:00am 12.6 13.0 11.3 92 0.7 CALM 0 0 0 0 1016.5 1016.3 0.0
21/02:30am 12.9 13.4 11.5 91 0.7 CALM 0 0 0 0 1016.9 1016.7 0.0
21/02:00am 13.1 13.6 11.5 90 0.8 CALM 0 0 0 0 1017.1 1016.9 0.0
21/01:30am 13.4 13.9 11.6 89 1.0 CALM 0 0 0 0 1017.4 1017.2 0.0
21/01:00am 13.8 14.4 11.8 88 1.1 CALM 0 0 0 0 1017.9 1017.7 0.0
21/12:30am 14.2 14.6 12.6 90 0.9 S 2 6 1 3 1018.0 1017.8 0.0
21/12:00am 14.2 14.8 11.9 86 1.2 CALM 0 0 0 0 1018.2 1018.0 0.0
 
Date/Time
EDT
Temp
°C
App
Temp
°C
Dew
Point
°C
Rel
Hum
%
Delta-T
°C
Wind Press
QNH
hPa
Press
MSL
hPa
Rain since
9am
mm
Dir  Spd
km/h
Gust
km/h
Spd
kts
Gust
kts
20/11:30pm 14.7 15.5 12.4 86 1.3 CALM 0 0 0 0 1018.2 1018.0 0.0

Latest Capital City Observations: Canberra | Sydney | Melbourne | Brisbane | Adelaide | Perth | Hobart | Darwin

Other formats

Comma delimited format used in spreadsheet applications
http://www.bom.gov.au/fwo/IDN60901/IDN60901.95761.axf

JavaScript Object Notation format (JSON) in row-major order
http://www.bom.gov.au/fwo/IDN60901/IDN60901.95761.json

Data quality

Most of these data are generated automatically and are frequently updated. Quality checks on data are not normally performed. It is possible for incorrect values to appear. Refer to information at About Latest Weather Observations and please check the disclaimer before using these data.